METAR Data
IDs: Format: Raw Decoded Include TAF

Data at: 1620 UTC 21 Sep 2018

KSZT 211615Z AUTO 00000KT 10SM SCT050 OVC085 11/07 A3006 RMK AO2
KSZT 211555Z AUTO 00000KT 10SM SCT060 SCT075 OVC085 11/06 A3007 RMK AO2
KSZT 211535Z AUTO 00000KT 10SM OVC060 10/06 A3007 RMK AO2
KSZT 211515Z AUTO 00000KT 10SM OVC060 10/07 A3007 RMK AO2
KSZT 211455Z AUTO 00000KT 10SM OVC060 09/06 A3007 RMK AO2
KSZT 211435Z AUTO 00000KT 10SM OVC060 08/07 A3007 RMK AO2
KSZT 211415Z AUTO 00000KT 10SM OVC060 07/06 A3007 RMK AO2
KSZT 211355Z AUTO 00000KT 10SM OVC060 07/06 A3007 RMK AO2
KSZT 211335Z AUTO 00000KT 10SM OVC060 07/06 A3007 RMK AO2
KSZT 211315Z AUTO 00000KT 10SM OVC060 07/06 A3007 RMK AO2
KSZT 211255Z AUTO 00000KT 10SM -DZ OVC060 07/06 A3007 RMK AO2
KSZT 211235Z AUTO 00000KT 10SM OVC060 06/05 A3007 RMK AO2
KSZT 211215Z AUTO 00000KT 10SM OVC060 06/05 A3007 RMK AO2
KSZT 211155Z AUTO 00000KT 10SM OVC060 06/05 A3007 RMK AO2
KSZT 211135Z AUTO 00000KT 10SM BKN060 BKN080 06/05 A3007 RMK AO2
KSZT 211115Z AUTO 00000KT 10SM SCT070 SCT080 06/05 A3007 RMK AO2
KSZT 211055Z AUTO 00000KT 10SM BKN070 06/05 A3007 RMK AO2
KSZT 211035Z AUTO 00000KT 10SM BKN075 BKN080 BKN110 06/05 A3007 RMK AO2
KSZT 211015Z AUTO 00000KT 10SM SCT090 BKN120 07/05 A3008 RMK AO2
KSZT 210955Z AUTO 00000KT 10SM BKN100 BKN120 06/05 A3008 RMK AO2
KSZT 210935Z AUTO 00000KT 10SM SCT120 06/05 A3008 RMK AO2
KSZT 210915Z AUTO 00000KT 10SM SCT120 06/04 A3008 RMK AO2
KSZT 210855Z AUTO 00000KT 10SM SCT120 05/04 A3008 RMK AO2
KSZT 210835Z AUTO 00000KT 10SM CLR 05/04 A3009 RMK AO2
KSZT 210815Z AUTO 00000KT 10SM CLR 06/05 A3010 RMK AO2
KSZT 210755Z AUTO 00000KT 10SM CLR 06/05 A3010 RMK AO2
KSZT 210735Z AUTO 00000KT 10SM CLR 06/05 A3009 RMK AO2
KSZT 210715Z AUTO 00000KT 10SM CLR 06/05 A3009 RMK AO2
KSZT 210655Z AUTO 00000KT 10SM CLR 06/05 A3009 RMK AO2
KSZT 210635Z AUTO 00000KT 10SM CLR 06/05 A3010 RMK AO2
KSZT 210615Z AUTO 29003KT 10SM CLR 07/06 A3009 RMK AO2
KSZT 210555Z AUTO 00000KT 10SM SCT100 08/05 A3009 RMK AO2
KSZT 210535Z AUTO 00000KT 10SM SCT085 OVC100 08/06 A3010 RMK AO2
KSZT 210515Z AUTO 00000KT 10SM BKN085 OVC110 08/06 A3011 RMK AO2
KSZT 210455Z AUTO 00000KT 10SM BKN085 OVC110 08/06 A3010 RMK AO2
KSZT 210435Z AUTO 00000KT 10SM BKN085 BKN110 09/06 A3010 RMK AO2
KSZT 210415Z AUTO 00000KT 10SM OVC085 09/06 A3010 RMK AO2
KSZT 210355Z AUTO 00000KT 10SM BKN085 BKN120 10/06 A3010 RMK AO2
KSZT 210335Z AUTO 00000KT 10SM SCT085 SCT120 11/05 A3010 RMK AO2
KSZT 210315Z AUTO 01003KT 10SM BKN085 11/05 A3009 RMK AO2
KSZT 210250Z AUTO 03006KT 10SM SCT070 OVC085 12/05 A3009 RMK AO2
KSZT 210235Z AUTO 04005KT 10SM BKN065 OVC080 12/05 A3008 RMK AO2
KSZT 210215Z AUTO 03008KT 10SM OVC065 12/05 A3008 RMK AO2
KSZT 210155Z AUTO 03010KT 10SM BKN065 OVC090 13/05 A3007 RMK AO2
KSZT 210135Z AUTO 03011KT 10SM SCT065 SCT075 BKN090 13/05 A3007 RMK AO2
KSZT 210115Z AUTO 02011G15KT 10SM SCT065 BKN090 16/06 A3006 RMK AO2
KSZT 210055Z AUTO 00000KT 10SM SCT100 16/07 A3005 RMK AO2
KSZT 210035Z AUTO 00000KT 10SM SCT065 OVC090 17/03 A3006 RMK AO2
KSZT 210015Z AUTO 00000KT 10SM BKN065 BKN075 OVC100 17/05 A3006 RMK AO2
KSZT 202355Z AUTO 00000KT 10SM SCT075 SCT080 BKN100 16/05 A3005 RMK AO2
KSZT 202335Z AUTO 16003KT 10SM SCT070 16/03 A3005 RMK AO2
KSZT 202315Z AUTO 17004KT 10SM SCT100 16/03 A3005 RMK AO2
KSZT 202255Z AUTO 19004KT 10SM SCT065 OVC100 17/03 A3005 RMK AO2
KSZT 202235Z AUTO 22003KT 10SM SCT065 OVC100 16/02 A3005 RMK AO2
KSZT 202215Z AUTO 23003KT 10SM SCT085 BKN095 17/02 A3005 RMK AO2
KSZT 202155Z AUTO 22005KT 10SM BKN095 16/03 A3005 RMK AO2
KSZT 202135Z AUTO 21006KT 10SM SCT080 BKN095 17/03 A3005 RMK AO2
KSZT 202115Z AUTO 22007KT 198V258 10SM SCT055 BKN080 BKN095 17/03 A3005 RMK AO2
KSZT 202055Z AUTO 00000KT 10SM BKN055 OVC080 16/03 A3005 RMK AO2
KSZT 202035Z AUTO 17008G14KT 10SM BKN065 BKN090 17/03 A3005 RMK AO2
KSZT 202015Z AUTO 17007KT 10SM BKN050 BKN060 17/03 A3005 RMK AO2
KSZT 201955Z AUTO 12003KT 10SM BKN055 BKN090 16/04 A3006 RMK AO2
KSZT 201935Z AUTO 15004KT 10SM BKN049 BKN055 BKN090 15/03 A3006 RMK AO2
KSZT 201915Z AUTO 13005KT 10SM BKN049 BKN080 OVC100 15/04 A3007 RMK AO2
KSZT 201855Z AUTO 17010G14KT 10SM BKN047 BKN055 OVC080 16/04 A3006 RMK AO2
KSZT 201835Z AUTO 15006KT 10SM SCT043 SCT080 15/03 A3007 RMK AO2
KSZT 201815Z AUTO 25004KT 10SM CLR 15/04 A3007 RMK AO2
KSZT 201755Z AUTO 19003KT 10SM CLR 15/04 A3007 RMK AO2
KSZT 201735Z AUTO 16006KT 10SM SCT038 14/04 A3007 RMK AO2
KSZT 201715Z AUTO 19004KT 10SM CLR 13/04 A3007 RMK AO2
KSZT 201655Z AUTO 19005KT 10SM CLR 12/04 A3007 RMK AO2
KSZT 201635Z AUTO 00000KT 10SM CLR 10/05 A3007 RMK AO2
KSZT 201615Z AUTO 00000KT 10SM CLR 07/05 A3007 RMK AO2
KSZT 201555Z AUTO 00000KT 10SM SCT095 07/04 A3007 RMK AO2
KSZT 201535Z AUTO 00000KT 10SM CLR 05/04 A3006 RMK AO2
KSZT 201515Z AUTO 00000KT 10SM SCT090 03/03 A3006 RMK AO2
KSZT 201455Z AUTO 00000KT 10SM SCT090 03/03 A3005 RMK AO2
KSZT 201435Z AUTO 00000KT 10SM SCT090 02/02 A3004 RMK AO2
KSZT 201415Z AUTO 00000KT 10SM SCT090 02/02 A3004 RMK AO2
KSZT 201355Z AUTO 00000KT 10SM SCT090 01/01 A3003 RMK AO2
KSZT 201335Z AUTO 00000KT 10SM CLR 01/01 A3002 RMK AO2
KSZT 201315Z AUTO 00000KT 10SM CLR 01/01 A3001 RMK AO2
KSZT 201255Z AUTO 00000KT 10SM CLR 01/01 A3000 RMK AO2
KSZT 201235Z AUTO 00000KT 10SM CLR 01/01 A3000 RMK AO2
KSZT 201215Z AUTO 00000KT 10SM CLR 01/01 A2999 RMK AO2
KSZT 201155Z AUTO 00000KT 10SM CLR 01/01 A2999 RMK AO2
KSZT 201135Z AUTO 00000KT 10SM CLR 02/02 A2998 RMK AO2
KSZT 201115Z AUTO 00000KT 10SM CLR 02/02 A2997 RMK AO2
KSZT 201055Z AUTO 00000KT 10SM CLR 02/02 A2997 RMK AO2
KSZT 201035Z AUTO 00000KT 10SM CLR 02/02 A2997 RMK AO2
KSZT 201015Z AUTO 00000KT 10SM CLR 02/01 A2997 RMK AO2
KSZT 200955Z AUTO 00000KT 10SM CLR 02/02 A2997 RMK AO2
KSZT 200935Z AUTO 00000KT 10SM CLR 02/02 A2997 RMK AO2
KSZT 200915Z AUTO 00000KT 10SM CLR 02/01 A2996 RMK AO2
KSZT 200855Z AUTO 00000KT 10SM CLR 03/02 A2996 RMK AO2
KSZT 200835Z AUTO 00000KT 10SM CLR 03/02 A2996 RMK AO2
KSZT 200815Z AUTO 00000KT 10SM CLR 03/02 A2996 RMK AO2
KSZT 200755Z AUTO 00000KT 10SM CLR 03/02 A2996 RMK AO2
KSZT 200735Z AUTO 00000KT 10SM CLR 03/02 A2995 RMK AO2
KSZT 200715Z AUTO 00000KT 10SM CLR 03/02 A2995 RMK AO2
KSZT 200655Z AUTO 00000KT 10SM CLR 03/02 A2995 RMK AO2
KSZT 200635Z AUTO 00000KT 10SM CLR 03/02 A2994 RMK AO2
KSZT 200615Z AUTO 00000KT 10SM CLR 04/03 A2995 RMK AO2
KSZT 200555Z AUTO 00000KT 10SM CLR 05/03 A2994 RMK AO2
KSZT 200535Z AUTO 00000KT 10SM CLR 05/03 A2994 RMK AO2
KSZT 200515Z AUTO 00000KT 10SM CLR 05/03 A2994 RMK AO2
KSZT 200455Z AUTO 28003KT 10SM CLR 06/03 A2994 RMK AO2
KSZT 200435Z AUTO 00000KT 10SM CLR 06/03 A2994 RMK AO2